createdAt,value
2019-06-10T00:01:08.208Z,86.34
2019-06-10T00:03:36.216Z,86.76
2019-06-10T00:06:05.670Z,86.19
2019-06-10T00:08:35.330Z,86.18
2019-06-10T00:11:06.157Z,86.99
2019-06-10T00:13:34.723Z,86.51
2019-06-10T00:16:04.798Z,86.50
2019-06-10T00:18:41.846Z,86.52
2019-06-10T00:21:05.577Z,86.59
2019-06-10T00:23:35.276Z,86.61
2019-06-10T00:26:08.036Z,86.91
2019-06-10T00:28:40.541Z,87.81
2019-06-10T00:31:08.714Z,88.39
2019-06-10T00:33:37.049Z,88.25
2019-06-10T00:36:07.141Z,88.08
2019-06-10T00:38:41.166Z,88.85
2019-06-10T00:41:13.738Z,88.86
2019-06-10T00:43:42.581Z,88.95
2019-06-10T00:46:13.330Z,88.89
2019-06-10T00:48:41.831Z,88.88
2019-06-10T00:51:13.081Z,89.58
2019-06-10T00:53:42.281Z,90.04
2019-06-10T00:56:14.168Z,90.04
2019-06-10T00:58:41.383Z,90.23
2019-06-10T01:01:14.008Z,90.00
2019-06-10T01:03:41.467Z,89.54
2019-06-10T01:06:14.589Z,90.03
2019-06-10T01:08:40.634Z,89.93
2019-06-10T01:11:21.281Z,90.44
2019-06-10T01:13:42.065Z,90.67
2019-06-10T01:16:12.595Z,90.51
2019-06-10T01:18:41.605Z,90.44
2019-06-10T01:21:12.208Z,90.43
2019-06-10T01:23:41.619Z,90.71
2019-06-10T01:26:14.133Z,91.31
2019-06-10T01:28:41.044Z,91.48
2019-06-10T01:31:13.091Z,91.69
2019-06-10T01:33:41.160Z,91.87
2019-06-10T01:36:12.653Z,92.12
2019-06-10T01:38:40.935Z,92.29
2019-06-10T01:41:11.119Z,92.36
2019-06-10T01:43:41.378Z,92.45
2019-06-10T01:46:11.728Z,92.57
2019-06-10T01:48:45.096Z,93.10
2019-06-10T01:51:13.115Z,93.39
2019-06-10T01:53:42.300Z,93.55
2019-06-10T01:56:13.799Z,93.74
2019-06-10T01:58:42.345Z,93.90
2019-06-10T02:01:17.413Z,93.91
2019-06-10T02:03:44.992Z,93.85
2019-06-10T02:06:17.687Z,94.10
2019-06-10T02:08:45.061Z,94.23
2019-06-10T02:11:15.698Z,94.24
2019-06-10T02:13:43.876Z,94.26
2019-06-10T02:16:14.492Z,94.27
2019-06-10T02:18:56.835Z,94.27
2019-06-10T02:21:15.001Z,94.36
2019-06-10T02:23:42.950Z,94.53
2019-06-10T02:26:14.568Z,94.62
2019-06-10T02:28:41.577Z,94.62
2019-06-10T02:31:14.254Z,94.64
2019-06-10T02:33:41.971Z,94.69
2019-06-10T02:36:13.895Z,94.85
2019-06-10T02:38:44.208Z,94.98
2019-06-10T02:41:17.543Z,94.97
2019-06-10T02:43:44.012Z,95.00
2019-06-10T02:46:13.763Z,95.05
2019-06-10T02:48:43.583Z,95.08
2019-06-10T02:51:15.071Z,95.12
2019-06-10T02:53:43.664Z,95.23
2019-06-10T02:56:13.069Z,95.28
2019-06-10T02:58:44.890Z,95.32
2019-06-10T03:01:15.262Z,95.37
2019-06-10T03:03:48.340Z,95.48
2019-06-10T03:06:17.420Z,95.62
2019-06-10T03:08:44.698Z,95.64
2019-06-10T03:11:14.044Z,95.62
2019-06-10T03:13:44.435Z,95.73
2019-06-10T03:16:29.484Z,95.79
2019-06-10T03:18:57.918Z,95.76
2019-06-10T03:21:26.304Z,95.84
2019-06-10T03:23:54.706Z,95.84
2019-06-10T03:26:24.348Z,95.77
2019-06-10T03:28:53.240Z,95.83
2019-06-10T03:31:31.264Z,95.86
2019-06-10T03:33:54.392Z,95.84
2019-06-10T03:36:23.097Z,95.86
2019-06-10T03:38:53.727Z,95.85
2019-06-10T03:41:24.676Z,95.91
2019-06-10T03:43:53.970Z,96.08
2019-06-10T03:46:24.251Z,96.33
2019-06-10T03:48:52.791Z,96.63
2019-06-10T03:51:23.543Z,96.71
2019-06-10T03:53:53.135Z,96.68
2019-06-10T03:56:23.234Z,96.73
2019-06-10T03:58:52.093Z,96.82
2019-06-10T04:01:24.347Z,96.95
2019-06-10T04:03:53.006Z,97.03
2019-06-10T04:06:22.158Z,97.06
2019-06-10T04:08:52.225Z,97.15
2019-06-10T04:11:23.958Z,97.12
2019-06-10T04:13:53.374Z,97.19
2019-06-10T04:16:22.691Z,97.19
2019-06-10T04:18:53.407Z,97.16
2019-06-10T04:21:22.784Z,96.97
2019-06-10T04:23:52.790Z,96.93
2019-06-10T04:26:24.515Z,96.91
2019-06-10T04:28:52.984Z,96.87
2019-06-10T04:31:23.752Z,96.85
2019-06-10T04:33:53.498Z,96.79
2019-06-10T04:36:24.499Z,96.77
2019-06-10T04:38:53.555Z,96.67
2019-06-10T04:41:24.330Z,96.62
2019-06-10T04:43:53.157Z,96.47
2019-06-10T04:46:23.675Z,96.28
2019-06-10T04:48:53.253Z,96.13
2019-06-10T04:51:23.877Z,95.95
2019-06-10T04:53:54.152Z,95.61
2019-06-10T04:56:24.607Z,94.91
2019-06-10T04:58:52.732Z,94.18
2019-06-10T05:01:25.491Z,93.69
2019-06-10T05:03:52.611Z,91.84
2019-06-10T05:06:23.865Z,91.79
2019-06-10T05:08:53.626Z,91.83
2019-06-10T05:11:24.285Z,90.57
2019-06-10T05:13:53.552Z,90.99
2019-06-10T05:16:25.593Z,90.67
2019-06-10T05:18:54.755Z,89.56
2019-06-10T05:21:25.112Z,88.66
2019-06-10T05:23:52.425Z,87.33
2019-06-10T05:26:25.019Z,85.17
2019-06-10T05:28:52.403Z,86.80
2019-06-10T05:31:23.233Z,86.16
2019-06-10T05:33:53.148Z,85.62
2019-06-10T05:36:25.714Z,85.25
2019-06-10T05:38:52.556Z,85.18
2019-06-10T05:41:24.116Z,85.44
2019-06-10T05:43:52.965Z,85.79
2019-06-10T05:46:23.627Z,86.02
2019-06-10T05:48:52.787Z,86.02
2019-06-10T05:51:23.211Z,86.13
2019-06-10T05:53:52.791Z,87.07
2019-06-10T05:56:22.367Z,86.02
2019-06-10T05:58:52.480Z,86.60
2019-06-10T06:01:22.917Z,85.62
2019-06-10T06:03:52.906Z,85.79
2019-06-10T06:06:22.913Z,85.28
2019-06-10T06:08:53.399Z,85.43
2019-06-10T06:11:23.180Z,85.77
2019-06-10T06:13:52.365Z,85.81
2019-06-10T06:16:23.125Z,86.48
2019-06-10T06:18:52.776Z,85.33
2019-06-10T06:21:29.120Z,86.17
2019-06-10T06:23:52.895Z,85.78
2019-06-10T06:26:23.589Z,85.37
2019-06-10T06:28:53.455Z,85.38
2019-06-10T06:31:23.237Z,84.09
2019-06-10T06:33:52.706Z,82.71
2019-06-10T06:36:22.970Z,80.95
2019-06-10T06:38:53.331Z,81.55
2019-06-10T06:41:22.628Z,80.20
2019-06-10T06:43:53.021Z,79.86
2019-06-10T06:46:23.412Z,80.54
2019-06-10T06:48:53.210Z,79.60
2019-06-10T06:51:35.945Z,80.58
2019-06-10T06:53:56.265Z,79.70
2019-06-10T06:56:24.112Z,80.53
2019-06-10T06:58:52.689Z,80.17
2019-06-10T07:01:25.184Z,80.03
2019-06-10T07:03:53.600Z,80.30
2019-06-10T07:06:23.229Z,79.75
2019-06-10T07:09:04.061Z,79.70
2019-06-10T07:11:24.747Z,79.69
2019-06-10T07:13:56.424Z,79.56
2019-06-10T07:16:24.967Z,79.19
2019-06-10T07:18:54.115Z,79.82
2019-06-10T07:21:22.996Z,78.95
2019-06-10T07:23:52.929Z,80.38
2019-06-10T07:26:23.514Z,80.38
2019-06-10T07:28:53.680Z,80.25
2019-06-10T07:31:27.654Z,81.00
2019-06-10T07:33:55.155Z,81.55
2019-06-10T07:36:26.312Z,82.34
2019-06-10T07:38:54.779Z,82.10
2019-06-10T07:41:23.390Z,81.06
2019-06-10T07:43:53.342Z,80.67
2019-06-10T07:46:24.715Z,81.68
2019-06-10T07:48:56.489Z,81.62
2019-06-10T07:51:23.261Z,81.13
2019-06-10T07:53:53.190Z,80.24
2019-06-10T07:56:23.355Z,80.06
2019-06-10T07:58:52.762Z,81.46
2019-06-10T08:01:22.927Z,80.42
2019-06-10T08:03:52.729Z,80.87
2019-06-10T08:06:23.213Z,82.11
2019-06-10T08:08:53.139Z,81.84
2019-06-10T08:11:22.941Z,81.13
2019-06-10T08:13:53.941Z,81.65
2019-06-10T08:16:23.643Z,80.50
2019-06-10T08:19:20.973Z,81.05
2019-06-10T08:21:24.849Z,80.34
2019-06-10T08:23:54.616Z,80.39
2019-06-10T08:26:24.511Z,80.24
2019-06-10T08:28:54.483Z,81.19
2019-06-10T08:31:24.649Z,81.48
2019-06-10T08:33:54.625Z,82.07
2019-06-10T08:36:23.672Z,81.92
2019-06-10T08:38:52.883Z,82.63
2019-06-10T08:41:23.060Z,82.51
2019-06-10T08:43:53.251Z,81.63
2019-06-10T08:46:22.542Z,81.34
2019-06-10T08:48:52.857Z,80.52
2019-06-10T08:51:23.672Z,77.85
2019-06-10T08:53:53.263Z,79.18
2019-06-10T08:56:22.379Z,79.20
2019-06-10T08:58:54.143Z,78.87
2019-06-10T09:01:22.507Z,78.50
2019-06-10T09:03:53.862Z,76.84
2019-06-10T09:06:23.219Z,75.07
2019-06-10T09:08:54.489Z,74.66
2019-06-10T09:11:25.017Z,72.79
2019-06-10T09:13:54.774Z,71.20
2019-06-10T09:16:23.415Z,71.86
2019-06-10T09:18:55.215Z,70.45
2019-06-10T09:21:23.910Z,68.85
2019-06-10T09:23:59.416Z,68.63
2019-06-10T09:26:23.083Z,69.30
2019-06-10T09:28:56.195Z,68.65
2019-06-10T09:31:23.296Z,68.30
2019-06-10T09:33:56.812Z,66.00
2019-06-10T09:36:28.417Z,67.05
2019-06-10T09:38:58.381Z,67.31
2019-06-10T09:41:39.963Z,66.53
2019-06-10T09:43:58.503Z,67.47
2019-06-10T09:46:28.403Z,66.85
2019-06-10T09:48:58.022Z,65.68
2019-06-10T09:51:28.536Z,66.04
2019-06-10T09:54:03.722Z,66.18
2019-06-10T09:56:27.306Z,64.90
2019-06-10T09:58:55.888Z,67.32
2019-06-10T10:01:24.724Z,66.33
2019-06-10T10:03:59.815Z,62.07
2019-06-10T10:06:24.694Z,62.06
2019-06-10T10:08:58.036Z,64.86
2019-06-10T10:11:28.653Z,64.10
2019-06-10T10:13:57.178Z,64.28
2019-06-10T10:16:25.533Z,56.64
2019-06-10T10:19:00.250Z,60.61
2019-06-10T10:21:24.103Z,62.73
2019-06-10T10:24:06.324Z,62.12
2019-06-10T10:26:22.701Z,61.91
2019-06-10T10:28:53.214Z,60.76
2019-06-10T10:31:23.832Z,59.16
2019-06-10T10:33:52.963Z,63.08
2019-06-10T10:36:22.594Z,57.28
2019-06-10T10:38:51.096Z,61.95
2019-06-10T10:41:19.546Z,62.08
2019-06-10T10:43:50.554Z,57.14
2019-06-10T10:46:26.618Z,54.35
2019-06-10T10:48:56.763Z,55.78
2019-06-10T10:51:25.113Z,55.02
2019-06-10T10:54:28.687Z,56.52
2019-06-10T10:56:29.133Z,55.93
2019-06-10T10:58:59.040Z,57.96
2019-06-10T11:01:27.599Z,59.14
2019-06-10T11:03:59.138Z,59.66
2019-06-10T11:06:26.115Z,59.76
2019-06-10T11:08:55.858Z,60.32
2019-06-10T11:11:27.051Z,60.71
2019-06-10T11:13:58.608Z,60.34
2019-06-10T11:16:27.405Z,59.34
2019-06-10T11:18:56.730Z,59.58
2019-06-10T11:21:25.987Z,60.81
2019-06-10T11:24:01.406Z,57.01
2019-06-10T11:26:27.717Z,56.13
2019-06-10T11:28:56.206Z,55.72
2019-06-10T11:31:26.199Z,55.54
2019-06-10T11:33:57.854Z,56.14
2019-06-10T11:36:27.121Z,57.08
2019-06-10T11:38:59.088Z,57.09
2019-06-10T11:41:27.498Z,55.31
2019-06-10T11:43:59.306Z,56.63
2019-06-10T11:46:28.688Z,56.13
2019-06-10T11:48:58.967Z,57.27
2019-06-10T11:51:27.461Z,58.23
2019-06-10T11:53:57.707Z,60.22
2019-06-10T11:56:26.988Z,55.38
2019-06-10T11:58:58.346Z,55.48
2019-06-10T12:01:26.035Z,59.53
2019-06-10T12:04:00.406Z,54.28
2019-06-10T12:06:28.434Z,50.10
2019-06-10T12:09:00.483Z,50.27
2019-06-10T12:11:27.378Z,52.56
2019-06-10T12:14:01.896Z,52.75
2019-06-10T12:17:15.620Z,52.62
2019-06-10T12:18:57.339Z,54.24
2019-06-10T12:21:26.448Z,55.05
2019-06-10T12:24:00.523Z,54.34
2019-06-10T12:26:25.924Z,55.16
2019-06-10T12:28:56.459Z,53.28
2019-06-10T12:31:24.665Z,52.32
2019-06-10T12:33:55.919Z,52.36
2019-06-10T12:36:23.949Z,51.72
2019-06-10T12:38:58.295Z,52.06
2019-06-10T12:41:24.521Z,51.13
2019-06-10T12:43:54.878Z,52.85
2019-06-10T12:46:24.921Z,51.22
2019-06-10T12:48:57.795Z,53.12
2019-06-10T12:51:24.767Z,52.29
2019-06-10T12:53:55.265Z,54.50
2019-06-10T12:56:25.315Z,54.36
2019-06-10T12:58:55.825Z,53.13
2019-06-10T13:01:23.959Z,56.61
2019-06-10T13:03:53.778Z,55.74
2019-06-10T13:06:24.316Z,59.98
2019-06-10T13:08:56.321Z,62.28
2019-06-10T13:11:27.800Z,61.90
2019-06-10T13:13:57.846Z,62.36
2019-06-10T13:16:27.979Z,62.58
2019-06-10T13:18:56.498Z,64.76
2019-06-10T13:21:30.250Z,65.63
2019-06-10T13:23:59.473Z,66.61
2019-06-10T13:26:28.186Z,68.40
2019-06-10T13:28:57.002Z,68.53
2019-06-10T13:31:25.410Z,70.27
2019-06-10T13:33:53.879Z,69.70
2019-06-10T13:36:26.142Z,70.41
2019-06-10T13:38:54.142Z,71.76
2019-06-10T13:41:24.065Z,72.69
2019-06-10T13:43:53.428Z,73.51
2019-06-10T13:46:24.645Z,74.24
2019-06-10T13:49:02.051Z,73.94
2019-06-10T13:51:39.202Z,75.41
2019-06-10T13:54:10.554Z,76.05
2019-06-10T13:56:47.173Z,76.32
2019-06-10T13:59:11.700Z,76.38
2019-06-10T14:01:42.830Z,75.26
2019-06-10T14:04:21.202Z,75.00
2019-06-10T14:06:49.875Z,73.60
2019-06-10T14:09:16.526Z,72.98
2019-06-10T14:11:42.884Z,72.40
2019-06-10T14:14:14.117Z,71.38
2019-06-10T14:16:42.348Z,71.05
2019-06-10T14:19:15.708Z,70.95
2019-06-10T14:21:42.726Z,70.97
2019-06-10T14:24:15.737Z,73.51
2019-06-10T14:26:45.471Z,73.16
2019-06-10T14:29:16.150Z,73.42
2019-06-10T14:31:47.653Z,74.23
2019-06-10T14:34:18.007Z,75.85
2019-06-10T14:36:44.887Z,76.04
2019-06-10T14:39:15.632Z,75.49
2019-06-10T14:41:43.506Z,76.57
2019-06-10T14:44:16.114Z,77.74
2019-06-10T14:46:43.667Z,78.53
2019-06-10T14:49:15.599Z,78.75
2019-06-10T14:51:43.821Z,78.31
2019-06-10T14:54:17.424Z,78.23
2019-06-10T14:56:53.041Z,78.29
2019-06-10T14:59:14.915Z,77.62
2019-06-10T15:01:42.756Z,76.76
2019-06-10T15:04:14.393Z,74.49
2019-06-10T15:06:43.184Z,74.88
2019-06-10T15:09:11.628Z,73.88
2019-06-10T15:11:40.044Z,73.93
2019-06-10T15:14:09.809Z,73.78
2019-06-10T15:16:43.541Z,72.33
2019-06-10T15:19:19.260Z,70.76
2019-06-10T15:21:42.877Z,72.96
2019-06-10T15:24:11.968Z,71.42
2019-06-10T15:26:42.276Z,72.12
2019-06-10T15:29:15.619Z,71.70
2019-06-10T15:31:45.603Z,72.25
2019-06-10T15:34:16.477Z,74.02
2019-06-10T15:36:44.952Z,75.06
2019-06-10T15:39:16.367Z,75.28
2019-06-10T15:41:43.614Z,73.32
2019-06-10T15:44:14.637Z,74.62
2019-06-10T15:46:43.054Z,73.54
2019-06-10T15:49:16.349Z,74.46
2019-06-10T15:51:43.720Z,73.70
2019-06-10T15:54:15.371Z,74.39
2019-06-10T15:56:52.034Z,75.82
2019-06-10T15:59:14.939Z,75.26
2019-06-10T16:01:42.908Z,74.35
2019-06-10T16:04:13.842Z,74.67
2019-06-10T16:06:42.470Z,74.90
2019-06-10T16:09:13.747Z,75.34
2019-06-10T16:11:43.689Z,74.69
2019-06-10T16:14:12.561Z,76.01
2019-06-10T16:16:43.287Z,76.91
2019-06-10T16:19:14.324Z,76.46
2019-06-10T16:21:44.313Z,77.07
2019-06-10T16:24:15.054Z,78.16
2019-06-10T16:26:43.228Z,78.75
2019-06-10T16:29:12.306Z,79.02
2019-06-10T16:31:42.584Z,79.18
2019-06-10T16:34:12.744Z,79.70
2019-06-10T16:36:43.727Z,80.43
2019-06-10T16:39:12.639Z,80.98
2019-06-10T16:41:43.631Z,80.30
2019-06-10T16:44:13.500Z,81.17
2019-06-10T16:46:43.151Z,80.81
2019-06-10T16:49:12.799Z,81.19
2019-06-10T16:51:42.882Z,81.97
2019-06-10T16:54:13.021Z,81.20
2019-06-10T16:56:43.524Z,81.25
2019-06-10T16:59:12.326Z,80.48
2019-06-10T17:01:42.791Z,81.16
2019-06-10T17:04:12.439Z,81.07
2019-06-10T17:06:42.211Z,81.07
2019-06-10T17:09:13.305Z,81.68
2019-06-10T17:11:42.626Z,82.12
2019-06-10T17:14:12.711Z,81.20
2019-06-10T17:16:41.428Z,81.52
2019-06-10T17:19:09.822Z,81.14
2019-06-10T17:21:38.331Z,82.09
2019-06-10T17:24:06.901Z,79.74
2019-06-10T17:26:38.147Z,81.10
2019-06-10T17:29:05.717Z,80.99
2019-06-10T17:31:35.149Z,81.42
2019-06-10T17:34:04.435Z,81.53
2019-06-10T17:36:35.406Z,81.88
2019-06-10T17:39:08.305Z,82.27
2019-06-10T17:41:38.395Z,82.56
2019-06-10T17:44:06.895Z,82.82
2019-06-10T17:46:35.507Z,83.57
2019-06-10T17:49:04.511Z,84.15
2019-06-10T17:51:35.560Z,83.70
2019-06-10T17:54:04.255Z,83.87
2019-06-10T17:56:36.038Z,83.98
2019-06-10T17:59:03.474Z,83.98
2019-06-10T18:01:34.208Z,84.49
2019-06-10T18:04:02.594Z,84.85
2019-06-10T18:06:33.895Z,84.59
2019-06-10T18:09:03.836Z,84.45
2019-06-10T18:11:34.185Z,84.25
2019-06-10T18:14:02.646Z,84.56
2019-06-10T18:16:33.666Z,84.09
2019-06-10T18:19:03.364Z,85.29
2019-06-10T18:21:33.533Z,85.43
2019-06-10T18:24:07.350Z,85.08
2019-06-10T18:26:35.897Z,84.75
2019-06-10T18:29:08.081Z,85.14
2019-06-10T18:31:35.690Z,85.17
2019-06-10T18:34:04.530Z,85.32
2019-06-10T18:36:34.649Z,85.31
2019-06-10T18:39:06.375Z,85.98
2019-06-10T18:41:35.050Z,86.45
2019-06-10T18:44:18.742Z,86.30
2019-06-10T18:46:36.423Z,86.29
2019-06-10T18:49:05.498Z,85.32
2019-06-10T18:51:36.036Z,85.24
2019-06-10T18:54:04.300Z,84.81
2019-06-10T18:56:34.365Z,84.94
2019-06-10T18:59:15.700Z,85.75
2019-06-10T19:01:34.332Z,85.53
2019-06-10T19:04:03.935Z,85.46
2019-06-10T19:06:33.779Z,85.58
2019-06-10T19:09:03.245Z,85.90
2019-06-10T19:11:34.083Z,85.53
2019-06-10T19:14:03.383Z,85.98
2019-06-10T19:16:35.424Z,86.25
2019-06-10T19:19:02.919Z,85.96
2019-06-10T19:21:32.386Z,85.82
2019-06-10T19:24:03.093Z,86.22
2019-06-10T19:26:33.986Z,86.19
2019-06-10T19:29:03.761Z,86.01
2019-06-10T19:31:36.223Z,86.09
2019-06-10T19:34:03.983Z,86.04
2019-06-10T19:36:33.610Z,85.99
2019-06-10T19:39:02.438Z,86.42
2019-06-10T19:41:33.238Z,87.06
2019-06-10T19:44:02.618Z,87.54
2019-06-10T19:46:32.838Z,87.86
2019-06-10T19:49:04.047Z,87.77
2019-06-10T19:51:34.626Z,87.56
2019-06-10T19:54:03.670Z,87.42
2019-06-10T19:56:33.067Z,87.49
2019-06-10T19:59:01.651Z,87.58
2019-06-10T20:01:30.052Z,87.33
2019-06-10T20:03:58.493Z,87.25
2019-06-10T20:06:26.897Z,87.27
2019-06-10T20:08:55.317Z,87.41
2019-06-10T20:11:23.731Z,87.79
2019-06-10T20:13:53.638Z,88.24
2019-06-10T20:16:23.580Z,88.56
2019-06-10T20:18:53.606Z,88.36
2019-06-10T20:21:23.750Z,88.29
2019-06-10T20:23:53.007Z,88.43
2019-06-10T20:26:22.553Z,88.14
2019-06-10T20:28:53.054Z,88.30
2019-06-10T20:31:22.171Z,88.42
2019-06-10T20:33:52.325Z,88.46
2019-06-10T20:36:25.686Z,88.40
2019-06-10T20:38:53.343Z,88.47
2019-06-10T20:41:22.790Z,88.66
2019-06-10T20:43:55.170Z,88.72
2019-06-10T20:46:23.601Z,89.10
2019-06-10T20:48:54.520Z,89.03
2019-06-10T20:51:22.723Z,89.24
2019-06-10T20:53:53.298Z,89.82
2019-06-10T20:56:23.269Z,89.68
2019-06-10T20:58:52.498Z,89.83
2019-06-10T21:01:25.220Z,89.97
2019-06-10T21:03:53.971Z,89.83
2019-06-10T21:06:24.355Z,89.92
2019-06-10T21:08:55.855Z,90.10
2019-06-10T21:11:24.248Z,90.18
2019-06-10T21:13:55.529Z,90.19
2019-06-10T21:16:23.080Z,90.16
2019-06-10T21:18:55.414Z,90.24
2019-06-10T21:21:22.612Z,90.41
2019-06-10T21:23:53.889Z,90.24
2019-06-10T21:26:23.672Z,90.40
2019-06-10T21:28:55.054Z,90.36
2019-06-10T21:31:22.613Z,90.33
2019-06-10T21:33:55.362Z,90.01
2019-06-10T21:36:22.968Z,90.11
2019-06-10T21:38:55.411Z,90.13
2019-06-10T21:41:22.882Z,89.90
2019-06-10T21:43:58.450Z,90.11
2019-06-10T21:46:22.712Z,90.34
2019-06-10T21:48:52.546Z,90.39
2019-06-10T21:51:22.859Z,90.61
2019-06-10T21:53:53.801Z,90.85
2019-06-10T21:56:22.647Z,91.13
2019-06-10T21:58:54.141Z,91.12
2019-06-10T22:01:22.876Z,91.22
2019-06-10T22:03:59.955Z,91.53
2019-06-10T22:06:22.822Z,91.71
2019-06-10T22:08:54.529Z,91.61
2019-06-10T22:11:23.595Z,91.80
2019-06-10T22:13:53.325Z,91.78
2019-06-10T22:16:22.659Z,91.82
2019-06-10T22:18:52.605Z,91.89
2019-06-10T22:21:22.667Z,92.30
2019-06-10T22:23:53.633Z,92.44
2019-06-10T22:26:22.495Z,92.56
2019-06-10T22:28:54.180Z,92.74
2019-06-10T22:31:23.790Z,92.80
2019-06-10T22:33:53.753Z,92.82
2019-06-10T22:36:23.188Z,93.14
2019-06-10T22:38:55.820Z,93.29
2019-06-10T22:41:22.546Z,93.82
2019-06-10T22:43:54.537Z,93.97
2019-06-10T22:46:23.174Z,94.07
2019-06-10T22:48:53.276Z,94.19
2019-06-10T22:51:22.980Z,94.28
2019-06-10T22:53:54.846Z,94.37
2019-06-10T22:56:21.586Z,94.52
2019-06-10T22:58:52.692Z,94.70
2019-06-10T23:01:31.685Z,94.80
2019-06-10T23:03:50.263Z,94.95
2019-06-10T23:06:18.791Z,95.10
2019-06-10T23:08:48.212Z,95.46
2019-06-10T23:11:18.178Z,95.61
2019-06-10T23:13:48.632Z,95.79
2019-06-10T23:16:17.005Z,95.97
2019-06-10T23:18:45.575Z,96.19
2019-06-10T23:21:13.997Z,96.25
2019-06-10T23:23:43.117Z,96.39
2019-06-10T23:26:13.088Z,96.47
2019-06-10T23:28:43.087Z,96.51
2019-06-10T23:31:13.022Z,96.67
2019-06-10T23:33:42.566Z,96.75
2019-06-10T23:36:13.069Z,96.88
2019-06-10T23:38:43.187Z,96.99
2019-06-10T23:41:12.986Z,97.15
2019-06-10T23:43:42.281Z,97.24
2019-06-10T23:46:12.136Z,97.34
2019-06-10T23:48:42.378Z,97.43
2019-06-10T23:51:12.109Z,97.50
2019-06-10T23:53:42.102Z,97.61
2019-06-10T23:56:12.699Z,97.67
2019-06-10T23:58:43.292Z,97.72
